Mundare, Canada
Current Conditions -  °F | °C
As of 6:00 PM on Saturday 20 Dec 2014 (Local Time) from CYED Reporting Station
Clear Clear  
Wind Chill:   Ceiling: Unl
Heat Index: 18°   Visibility: 9mi
Dew Point: 14°   Wind: 6mph
Humidity: 86%   Direction: 120°ESE
Pressure: 29.46"   Gusts: NA
Location:  53.59°N, 112.34°W
Report Text: CYED 210100Z AUTO 12005KT 9SM CLR M08/M10 A2946 RMK SLP015
Loading
Personal Weather Stations






























Interactive Weather Map New forecast layout! Learn more

10-Day Weather Forecast

Advertisements
Track Severe Weather on mobile